sensor_id;sensor_type;location;lat;lon;timestamp;noise_LAeq;noise_LA_min;noise_LA_max;noise_LA01;noise_LA95
74260;Laerm;62630;55.874;37.516;2023-02-13T00:02:19;51.75;46.32;61.59;;
74260;Laerm;62630;55.874;37.516;2023-02-13T00:04:44;51.65;45.41;61.62;;
74260;Laerm;62630;55.874;37.516;2023-02-13T00:07:10;54.16;45.66;71.00;;
74260;Laerm;62630;55.874;37.516;2023-02-13T00:09:37;51.53;46.92;59.09;;
74260;Laerm;62630;55.874;37.516;2023-02-13T00:12:03;50.66;46.97;56.11;;
74260;Laerm;62630;55.874;37.516;2023-02-13T00:14:29;52.02;47.85;56.78;;
74260;Laerm;62630;55.874;37.516;2023-02-13T00:16:54;52.40;46.25;70.03;;
74260;Laerm;62630;55.874;37.516;2023-02-13T00:19:20;54.65;47.97;66.44;;
74260;Laerm;62630;55.874;37.516;2023-02-13T00:21:45;54.30;47.57;64.67;;
74260;Laerm;62630;55.874;37.516;2023-02-13T00:24:11;52.49;47.76;60.79;;
74260;Laerm;62630;55.874;37.516;2023-02-13T00:26:37;52.61;47.91;61.10;;
74260;Laerm;62630;55.874;37.516;2023-02-13T00:29:04;51.49;47.67;57.91;;
74260;Laerm;62630;55.874;37.516;2023-02-13T00:31:30;51.61;46.64;56.81;;
74260;Laerm;62630;55.874;37.516;2023-02-13T00:33:55;53.15;48.93;59.40;;
74260;Laerm;62630;55.874;37.516;2023-02-13T00:36:21;52.78;48.45;60.16;;
74260;Laerm;62630;55.874;37.516;2023-02-13T00:38:49;53.62;48.84;61.62;;
74260;Laerm;62630;55.874;37.516;2023-02-13T00:41:15;52.56;48.92;57.39;;
74260;Laerm;62630;55.874;37.516;2023-02-13T00:43:44;52.83;47.90;64.68;;
74260;Laerm;62630;55.874;37.516;2023-02-13T00:46:10;52.81;47.68;61.99;;
74260;Laerm;62630;55.874;37.516;2023-02-13T00:48:36;52.66;47.56;61.03;;
74260;Laerm;62630;55.874;37.516;2023-02-13T00:51:02;52.54;46.51;62.83;;
74260;Laerm;62630;55.874;37.516;2023-02-13T00:53:31;53.60;47.91;66.19;;
74260;Laerm;62630;55.874;37.516;2023-02-13T00:55:57;52.46;48.92;56.27;;
74260;Laerm;62630;55.874;37.516;2023-02-13T00:58:23;54.04;48.55;64.49;;
74260;Laerm;62630;55.874;37.516;2023-02-13T01:00:50;57.70;48.71;64.88;;
74260;Laerm;62630;55.874;37.516;2023-02-13T01:03:17;51.86;47.73;67.05;;
74260;Laerm;62630;55.874;37.516;2023-02-13T01:05:43;52.89;47.38;61.89;;
74260;Laerm;62630;55.874;37.516;2023-02-13T01:08:10;53.36;47.17;59.40;;
74260;Laerm;62630;55.874;37.516;2023-02-13T01:10:37;52.36;47.75;59.42;;
74260;Laerm;62630;55.874;37.516;2023-02-13T01:13:04;54.76;48.06;69.70;;
74260;Laerm;62630;55.874;37.516;2023-02-13T01:15:29;53.81;46.68;63.75;;
74260;Laerm;62630;55.874;37.516;2023-02-13T01:17:55;51.97;47.70;63.50;;
74260;Laerm;62630;55.874;37.516;2023-02-13T01:20:24;51.56;46.51;60.03;;
74260;Laerm;62630;55.874;37.516;2023-02-13T01:22:50;51.98;47.96;60.17;;
74260;Laerm;62630;55.874;37.516;2023-02-13T01:25:16;58.23;49.54;70.04;;
74260;Laerm;62630;55.874;37.516;2023-02-13T01:27:44;66.03;47.76;80.57;;
74260;Laerm;62630;55.874;37.516;2023-02-13T01:30:12;51.69;47.19;64.07;;
74260;Laerm;62630;55.874;37.516;2023-02-13T01:32:42;55.43;47.04;67.36;;
74260;Laerm;62630;55.874;37.516;2023-02-13T01:35:11;52.94;46.84;63.74;;
74260;Laerm;62630;55.874;37.516;2023-02-13T01:37:37;51.72;45.85;64.65;;
74260;Laerm;62630;55.874;37.516;2023-02-13T01:40:09;51.40;47.24;62.84;;
74260;Laerm;62630;55.874;37.516;2023-02-13T01:42:35;58.51;48.71;69.36;;
74260;Laerm;62630;55.874;37.516;2023-02-13T01:45:26;54.49;47.19;70.47;;
74260;Laerm;62630;55.874;37.516;2023-02-13T01:48:02;55.49;46.95;67.52;;
74260;Laerm;62630;55.874;37.516;2023-02-13T01:50:36;58.55;46.64;82.22;;
74260;Laerm;62630;55.874;37.516;2023-02-13T01:53:15;50.43;46.41;54.97;;
74260;Laerm;62630;55.874;37.516;2023-02-13T01:55:57;55.96;46.51;70.48;;
74260;Laerm;62630;55.874;37.516;2023-02-13T01:58:26;56.72;46.16;71.54;;
74260;Laerm;62630;55.874;37.516;2023-02-13T02:00:58;51.76;46.65;62.15;;
74260;Laerm;62630;55.874;37.516;2023-02-13T02:03:29;56.03;45.47;66.06;;
74260;Laerm;62630;55.874;37.516;2023-02-13T02:06:00;55.82;46.93;74.20;;
74260;Laerm;62630;55.874;37.516;2023-02-13T02:08:29;55.15;46.36;70.98;;
74260;Laerm;62630;55.874;37.516;2023-02-13T02:11:00;50.65;46.30;56.76;;
74260;Laerm;62630;55.874;37.516;2023-02-13T02:13:29;50.24;46.42;57.78;;
74260;Laerm;62630;55.874;37.516;2023-02-13T02:15:55;52.25;46.93;64.68;;
74260;Laerm;62630;55.874;37.516;2023-02-13T02:18:28;57.35;46.86;69.08;;
74260;Laerm;62630;55.874;37.516;2023-02-13T02:26:25;56.64;47.77;68.03;;
74260;Laerm;62630;55.874;37.516;2023-02-13T02:45:50;58.63;49.64;75.71;;
74260;Laerm;62630;55.874;37.516;2023-02-13T02:48:37;61.89;49.32;76.62;;
74260;Laerm;62630;55.874;37.516;2023-02-13T02:51:37;58.55;49.15;67.22;;
74260;Laerm;62630;55.874;37.516;2023-02-13T02:54:22;57.46;48.45;71.52;;
74260;Laerm;62630;55.874;37.516;2023-02-13T02:57:24;59.40;49.38;70.03;;
74260;Laerm;62630;55.874;37.516;2023-02-13T03:00:30;61.54;49.15;78.55;;
74260;Laerm;62630;55.874;37.516;2023-02-13T03:03:27;59.70;48.79;70.66;;
74260;Laerm;62630;55.874;37.516;2023-02-13T03:06:16;58.11;51.21;66.60;;
74260;Laerm;62630;55.874;37.516;2023-02-13T03:08:53;65.24;50.42;80.09;;
74260;Laerm;62630;55.874;37.516;2023-02-13T03:11:38;59.31;49.30;70.92;;
74260;Laerm;62630;55.874;37.516;2023-02-13T03:14:26;57.39;49.94;65.39;;
74260;Laerm;62630;55.874;37.516;2023-02-13T03:16:55;67.07;51.03;84.28;;
74260;Laerm;62630;55.874;37.516;2023-02-13T03:25:41;58.65;51.50;72.32;;
74260;Laerm;62630;55.874;37.516;2023-02-13T03:28:28;56.83;50.88;67.35;;
74260;Laerm;62630;55.874;37.516;2023-02-13T03:34:09;60.54;51.65;75.96;;
74260;Laerm;62630;55.874;37.516;2023-02-13T03:37:00;57.88;51.87;68.64;;
74260;Laerm;62630;55.874;37.516;2023-02-13T03:40:26;61.18;49.65;73.79;;
74260;Laerm;62630;55.874;37.516;2023-02-13T03:42:58;59.52;50.26;68.25;;
74260;Laerm;62630;55.874;37.516;2023-02-13T03:45:31;60.36;50.67;71.83;;
74260;Laerm;62630;55.874;37.516;2023-02-13T03:48:31;58.85;52.03;72.89;;
74260;Laerm;62630;55.874;37.516;2023-02-13T03:51:32;62.91;52.35;77.66;;
74260;Laerm;62630;55.874;37.516;2023-02-13T03:54:04;57.98;51.72;67.45;;
74260;Laerm;62630;55.874;37.516;2023-02-13T03:56:33;58.52;51.66;67.68;;
74260;Laerm;62630;55.874;37.516;2023-02-13T03:59:31;60.61;51.36;71.88;;
74260;Laerm;62630;55.874;37.516;2023-02-13T04:02:10;65.72;52.52;79.44;;
74260;Laerm;62630;55.874;37.516;2023-02-13T04:04:54;62.36;54.20;79.95;;
74260;Laerm;62630;55.874;37.516;2023-02-13T04:07:24;61.62;53.88;75.97;;
74260;Laerm;62630;55.874;37.516;2023-02-13T04:09:59;63.11;54.26;78.72;;
74260;Laerm;62630;55.874;37.516;2023-02-13T04:20:35;60.18;53.15;67.94;;
74260;Laerm;62630;55.874;37.516;2023-02-13T04:23:05;63.99;52.63;76.83;;
74260;Laerm;62630;55.874;37.516;2023-02-13T04:25:32;60.72;52.04;72.00;;
74260;Laerm;62630;55.874;37.516;2023-02-13T04:27:58;60.64;52.78;71.36;;
74260;Laerm;62630;55.874;37.516;2023-02-13T04:30:23;62.61;54.91;71.04;;
74260;Laerm;62630;55.874;37.516;2023-02-13T04:32:49;61.36;53.18;68.57;;
74260;Laerm;62630;55.874;37.516;2023-02-13T04:35:17;63.93;54.11;77.19;;
74260;Laerm;62630;55.874;37.516;2023-02-13T04:37:42;64.40;55.27;80.64;;
74260;Laerm;62630;55.874;37.516;2023-02-13T04:40:08;61.00;53.21;70.19;;
74260;Laerm;62630;55.874;37.516;2023-02-13T04:42:34;60.50;52.93;68.20;;
74260;Laerm;62630;55.874;37.516;2023-02-13T04:44:59;63.15;54.19;76.96;;
74260;Laerm;62630;55.874;37.516;2023-02-13T04:47:25;61.66;54.40;72.31;;
74260;Laerm;62630;55.874;37.516;2023-02-13T04:49:50;61.73;53.27;70.39;;
74260;Laerm;62630;55.874;37.516;2023-02-13T04:52:16;64.76;54.99;81.62;;
74260;Laerm;62630;55.874;37.516;2023-02-13T04:54:42;69.62;53.98;87.38;;
74260;Laerm;62630;55.874;37.516;2023-02-13T04:57:08;63.14;55.74;77.33;;
74260;Laerm;62630;55.874;37.516;2023-02-13T04:59:34;62.54;54.35;74.66;;
74260;Laerm;62630;55.874;37.516;2023-02-13T05:01:59;61.10;54.99;73.96;;
74260;Laerm;62630;55.874;37.516;2023-02-13T05:04:25;64.04;55.71;85.10;;
74260;Laerm;62630;55.874;37.516;2023-02-13T05:06:51;63.96;56.61;75.95;;
74260;Laerm;62630;55.874;37.516;2023-02-13T05:09:16;64.30;54.22;80.52;;
74260;Laerm;62630;55.874;37.516;2023-02-13T05:11:42;61.86;56.61;69.53;;
74260;Laerm;62630;55.874;37.516;2023-02-13T05:14:09;61.56;57.03;67.78;;
74260;Laerm;62630;55.874;37.516;2023-02-13T05:16:55;65.68;56.57;74.66;;
74260;Laerm;62630;55.874;37.516;2023-02-13T05:19:20;61.61;57.34;77.61;;
74260;Laerm;62630;55.874;37.516;2023-02-13T05:21:46;61.40;56.86;73.13;;
74260;Laerm;62630;55.874;37.516;2023-02-13T05:24:30;63.03;56.62;77.01;;
74260;Laerm;62630;55.874;37.516;2023-02-13T05:26:56;67.26;58.58;78.97;;
74260;Laerm;62630;55.874;37.516;2023-02-13T05:29:21;62.39;56.89;76.21;;
74260;Laerm;62630;55.874;37.516;2023-02-13T05:31:49;64.08;58.62;72.84;;
74260;Laerm;62630;55.874;37.516;2023-02-13T05:34:18;66.49;58.59;82.67;;
74260;Laerm;62630;55.874;37.516;2023-02-13T05:36:47;66.43;57.44;76.48;;
74260;Laerm;62630;55.874;37.516;2023-02-13T05:39:13;65.63;60.57;73.48;;
74260;Laerm;62630;55.874;37.516;2023-02-13T05:41:40;67.23;57.59;84.96;;
74260;Laerm;62630;55.874;37.516;2023-02-13T05:44:13;61.25;56.05;72.37;;
74260;Laerm;62630;55.874;37.516;2023-02-13T05:46:45;64.68;58.61;72.65;;
74260;Laerm;62630;55.874;37.516;2023-02-13T05:49:13;62.10;58.41;72.09;;
74260;Laerm;62630;55.874;37.516;2023-02-13T05:51:39;62.58;56.63;79.91;;
74260;Laerm;62630;55.874;37.516;2023-02-13T05:54:04;68.09;57.83;84.00;;
74260;Laerm;62630;55.874;37.516;2023-02-13T05:56:31;61.90;57.16;77.92;;
74260;Laerm;62630;55.874;37.516;2023-02-13T05:58:58;62.94;57.51;83.37;;
74260;Laerm;62630;55.874;37.516;2023-02-13T06:01:24;64.07;58.27;75.89;;
74260;Laerm;62630;55.874;37.516;2023-02-13T06:03:50;65.88;55.52;83.24;;
74260;Laerm;62630;55.874;37.516;2023-02-13T06:06:16;62.84;56.36;77.46;;
74260;Laerm;62630;55.874;37.516;2023-02-13T06:08:41;63.82;56.62;76.12;;
74260;Laerm;62630;55.874;37.516;2023-02-13T06:11:07;69.37;58.28;94.09;;
74260;Laerm;62630;55.874;37.516;2023-02-13T06:13:33;66.46;58.89;77.85;;
74260;Laerm;62630;55.874;37.516;2023-02-13T06:15:59;64.44;53.63;77.03;;
74260;Laerm;62630;55.874;37.516;2023-02-13T06:18:26;65.51;53.77;82.39;;
74260;Laerm;62630;55.874;37.516;2023-02-13T06:20:52;61.74;53.00;69.79;;
74260;Laerm;62630;55.874;37.516;2023-02-13T06:23:19;61.91;55.41;73.19;;
74260;Laerm;62630;55.874;37.516;2023-02-13T06:25:44;65.88;55.13;74.99;;
74260;Laerm;62630;55.874;37.516;2023-02-13T06:28:10;65.93;55.11;82.38;;
74260;Laerm;62630;55.874;37.516;2023-02-13T06:30:39;61.74;53.65;71.25;;
74260;Laerm;62630;55.874;37.516;2023-02-13T06:33:04;63.42;55.98;79.41;;
74260;Laerm;62630;55.874;37.516;2023-02-13T06:35:30;61.54;55.04;70.36;;
74260;Laerm;62630;55.874;37.516;2023-02-13T06:37:58;63.80;52.26;85.46;;
74260;Laerm;62630;55.874;37.516;2023-02-13T06:40:24;66.03;55.49;90.28;;
74260;Laerm;62630;55.874;37.516;2023-02-13T06:42:50;65.59;56.41;77.25;;
74260;Laerm;62630;55.874;37.516;2023-02-13T06:45:15;70.06;55.45;83.37;;
74260;Laerm;62630;55.874;37.516;2023-02-13T06:47:51;66.62;54.69;79.54;;
74260;Laerm;62630;55.874;37.516;2023-02-13T06:50:17;66.79;55.90;93.86;;
74260;Laerm;62630;55.874;37.516;2023-02-13T06:52:48;65.82;56.80;78.67;;
74260;Laerm;62630;55.874;37.516;2023-02-13T06:55:19;65.26;56.24;77.46;;
74260;Laerm;62630;55.874;37.516;2023-02-13T06:57:49;64.06;55.14;73.91;;
74260;Laerm;62630;55.874;37.516;2023-02-13T07:00:16;68.04;58.66;81.91;;
74260;Laerm;62630;55.874;37.516;2023-02-13T07:02:43;66.05;57.39;76.82;;
74260;Laerm;62630;55.874;37.516;2023-02-13T07:05:09;67.12;57.35;82.53;;
74260;Laerm;62630;55.874;37.516;2023-02-13T07:07:38;66.89;59.12;78.46;;
74260;Laerm;62630;55.874;37.516;2023-02-13T07:10:05;63.78;56.61;72.08;;
74260;Laerm;62630;55.874;37.516;2023-02-13T07:12:37;64.86;56.45;76.57;;
74260;Laerm;62630;55.874;37.516;2023-02-13T07:15:06;63.58;55.57;70.88;;
74260;Laerm;62630;55.874;37.516;2023-02-13T07:17:32;64.53;54.70;74.09;;
74260;Laerm;62630;55.874;37.516;2023-02-13T07:19:59;64.21;55.71;84.04;;
74260;Laerm;62630;55.874;37.516;2023-02-13T07:22:25;63.46;55.50;82.48;;
74260;Laerm;62630;55.874;37.516;2023-02-13T07:24:50;65.20;55.77;81.62;;
74260;Laerm;62630;55.874;37.516;2023-02-13T07:27:16;63.35;55.98;70.87;;
74260;Laerm;62630;55.874;37.516;2023-02-13T07:29:41;63.84;56.32;77.68;;
74260;Laerm;62630;55.874;37.516;2023-02-13T07:32:07;64.11;53.79;72.64;;
74260;Laerm;62630;55.874;37.516;2023-02-13T07:34:33;65.13;57.50;74.14;;
74260;Laerm;62630;55.874;37.516;2023-02-13T07:36:59;65.02;56.61;74.64;;
74260;Laerm;62630;55.874;37.516;2023-02-13T07:42:00;64.57;55.42;75.22;;
74260;Laerm;62630;55.874;37.516;2023-02-13T07:44:29;64.05;55.85;70.40;;
74260;Laerm;62630;55.874;37.516;2023-02-13T07:46:54;68.68;53.63;81.64;;
74260;Laerm;62630;55.874;37.516;2023-02-13T07:49:20;62.32;55.21;69.92;;
74260;Laerm;62630;55.874;37.516;2023-02-13T07:51:46;66.60;56.22;79.15;;
74260;Laerm;62630;55.874;37.516;2023-02-13T07:54:12;65.89;56.54;78.29;;
74260;Laerm;62630;55.874;37.516;2023-02-13T07:56:38;64.58;57.59;79.20;;
74260;Laerm;62630;55.874;37.516;2023-02-13T07:59:03;70.08;60.14;84.91;;
74260;Laerm;62630;55.874;37.516;2023-02-13T08:01:29;65.57;56.23;75.99;;
74260;Laerm;62630;55.874;37.516;2023-02-13T08:03:55;66.02;56.56;83.89;;
74260;Laerm;62630;55.874;37.516;2023-02-13T08:06:23;66.11;59.04;72.43;;
74260;Laerm;62630;55.874;37.516;2023-02-13T08:08:52;66.27;56.86;75.66;;
74260;Laerm;62630;55.874;37.516;2023-02-13T08:11:37;65.12;58.35;72.25;;
74260;Laerm;62630;55.874;37.516;2023-02-13T08:14:23;65.74;59.59;71.67;;
74260;Laerm;62630;55.874;37.516;2023-02-13T08:16:52;63.96;58.15;78.98;;
74260;Laerm;62630;55.874;37.516;2023-02-13T08:19:18;64.23;56.85;76.77;;
74260;Laerm;62630;55.874;37.516;2023-02-13T08:21:45;69.77;57.78;83.22;;
74260;Laerm;62630;55.874;37.516;2023-02-13T08:24:11;65.51;59.23;76.43;;
74260;Laerm;62630;55.874;37.516;2023-02-13T08:26:38;65.36;59.44;76.96;;
74260;Laerm;62630;55.874;37.516;2023-02-13T08:29:05;67.91;61.77;81.69;;
74260;Laerm;62630;55.874;37.516;2023-02-13T08:34:19;67.55;58.38;81.18;;
74260;Laerm;62630;55.874;37.516;2023-02-13T08:36:45;65.94;55.35;77.90;;
74260;Laerm;62630;55.874;37.516;2023-02-13T08:39:11;64.84;55.54;81.23;;
74260;Laerm;62630;55.874;37.516;2023-02-13T08:41:36;66.17;59.38;78.53;;
74260;Laerm;62630;55.874;37.516;2023-02-13T08:44:02;68.53;58.47;75.86;;
74260;Laerm;62630;55.874;37.516;2023-02-13T08:46:30;67.02;58.07;81.63;;
74260;Laerm;62630;55.874;37.516;2023-02-13T08:48:56;65.55;55.04;75.65;;
74260;Laerm;62630;55.874;37.516;2023-02-13T08:51:22;67.97;57.51;84.75;;
74260;Laerm;62630;55.874;37.516;2023-02-13T08:53:48;64.94;56.32;72.52;;
74260;Laerm;62630;55.874;37.516;2023-02-13T08:56:15;64.83;55.09;71.51;;
74260;Laerm;62630;55.874;37.516;2023-02-13T08:58:41;64.52;54.75;76.92;;
74260;Laerm;62630;55.874;37.516;2023-02-13T09:01:07;66.13;56.13;79.70;;
74260;Laerm;62630;55.874;37.516;2023-02-13T09:03:33;67.79;58.22;90.84;;
74260;Laerm;62630;55.874;37.516;2023-02-13T09:06:00;67.80;54.76;90.00;;
74260;Laerm;62630;55.874;37.516;2023-02-13T09:08:26;65.09;54.90;71.93;;
74260;Laerm;62630;55.874;37.516;2023-02-13T09:11:00;64.30;53.40;73.11;;
74260;Laerm;62630;55.874;37.516;2023-02-13T09:13:30;65.92;53.98;78.35;;
74260;Laerm;62630;55.874;37.516;2023-02-13T09:16:00;64.04;53.82;77.68;;
74260;Laerm;62630;55.874;37.516;2023-02-13T09:18:27;65.29;56.80;77.50;;
74260;Laerm;62630;55.874;37.516;2023-02-13T09:21:03;68.32;57.73;79.42;;
74260;Laerm;62630;55.874;37.516;2023-02-13T09:23:31;66.18;56.15;78.10;;
74260;Laerm;62630;55.874;37.516;2023-02-13T09:26:01;64.16;54.67;73.67;;
74260;Laerm;62630;55.874;37.516;2023-02-13T09:28:28;64.24;58.79;73.98;;
74260;Laerm;62630;55.874;37.516;2023-02-13T09:30:54;65.80;58.37;72.04;;
74260;Laerm;62630;55.874;37.516;2023-02-13T09:33:20;69.89;59.55;80.09;;
74260;Laerm;62630;55.874;37.516;2023-02-13T09:36:07;66.27;57.68;73.27;;
74260;Laerm;62630;55.874;37.516;2023-02-13T09:38:54;68.86;57.31;79.20;;
74260;Laerm;62630;55.874;37.516;2023-02-13T09:41:25;66.93;57.54;77.21;;
74260;Laerm;62630;55.874;37.516;2023-02-13T09:43:58;66.54;58.84;72.63;;
74260;Laerm;62630;55.874;37.516;2023-02-13T09:46:30;65.37;57.06;77.55;;
74260;Laerm;62630;55.874;37.516;2023-02-13T09:49:00;67.90;59.14;81.54;;
74260;Laerm;62630;55.874;37.516;2023-02-13T09:51:29;67.38;57.46;76.62;;
74260;Laerm;62630;55.874;37.516;2023-02-13T09:54:04;62.70;55.42;70.88;;
74260;Laerm;62630;55.874;37.516;2023-02-13T09:56:43;67.70;58.02;88.43;;
74260;Laerm;62630;55.874;37.516;2023-02-13T10:01:54;66.26;57.41;77.13;;
74260;Laerm;62630;55.874;37.516;2023-02-13T10:07:25;68.99;59.23;85.04;;
74260;Laerm;62630;55.874;37.516;2023-02-13T10:10:02;69.41;55.79;93.52;;
74260;Laerm;62630;55.874;37.516;2023-02-13T10:15:47;70.66;54.00;99.39;;
74260;Laerm;62630;55.874;37.516;2023-02-13T10:18:18;65.73;58.36;74.35;;
74260;Laerm;62630;55.874;37.516;2023-02-13T10:20:54;66.24;58.39;75.37;;
74260;Laerm;62630;55.874;37.516;2023-02-13T10:23:29;64.83;54.93;71.33;;
74260;Laerm;62630;55.874;37.516;2023-02-13T10:26:01;67.66;58.99;79.82;;
74260;Laerm;62630;55.874;37.516;2023-02-13T10:28:36;65.79;57.04;73.73;;
74260;Laerm;62630;55.874;37.516;2023-02-13T10:31:10;75.28;55.62;97.66;;
74260;Laerm;62630;55.874;37.516;2023-02-13T10:36:18;69.94;58.60;82.92;;
74260;Laerm;62630;55.874;37.516;2023-02-13T10:39:01;68.66;60.81;76.34;;
74260;Laerm;62630;55.874;37.516;2023-02-13T10:50:16;66.31;58.54;78.66;;
74260;Laerm;62630;55.874;37.516;2023-02-13T10:53:20;66.94;59.44;84.72;;
74260;Laerm;62630;55.874;37.516;2023-02-13T11:01:31;69.41;58.24;90.33;;
74260;Laerm;62630;55.874;37.516;2023-02-13T11:04:08;67.25;57.14;81.34;;
74260;Laerm;62630;55.874;37.516;2023-02-13T11:06:36;65.77;53.82;74.57;;
74260;Laerm;62630;55.874;37.516;2023-02-13T11:09:04;67.72;57.38;87.75;;
74260;Laerm;62630;55.874;37.516;2023-02-13T11:11:40;65.77;56.19;73.28;;
74260;Laerm;62630;55.874;37.516;2023-02-13T11:14:16;66.83;58.13;81.36;;
74260;Laerm;62630;55.874;37.516;2023-02-13T11:16:47;65.64;56.34;72.89;;
74260;Laerm;62630;55.874;37.516;2023-02-13T11:19:36;65.71;55.73;73.90;;
74260;Laerm;62630;55.874;37.516;2023-02-13T11:24:54;66.79;58.25;72.43;;
74260;Laerm;62630;55.874;37.516;2023-02-13T11:27:31;67.14;61.22;76.32;;
74260;Laerm;62630;55.874;37.516;2023-02-13T11:30:33;64.31;55.39;76.11;;
74260;Laerm;62630;55.874;37.516;2023-02-13T11:33:21;66.61;56.97;79.18;;
74260;Laerm;62630;55.874;37.516;2023-02-13T11:35:47;66.46;59.40;74.66;;
74260;Laerm;62630;55.874;37.516;2023-02-13T11:40:44;66.30;59.01;71.78;;
74260;Laerm;62630;55.874;37.516;2023-02-13T11:43:34;67.58;57.52;80.80;;
74260;Laerm;62630;55.874;37.516;2023-02-13T11:46:07;71.27;60.87;79.22;;
74260;Laerm;62630;55.874;37.516;2023-02-13T11:48:35;65.88;58.28;76.36;;
74260;Laerm;62630;55.874;37.516;2023-02-13T11:51:04;67.34;56.25;80.81;;
74260;Laerm;62630;55.874;37.516;2023-02-13T11:53:38;69.22;60.98;78.54;;
74260;Laerm;62630;55.874;37.516;2023-02-13T11:56:11;66.11;56.76;72.23;;
74260;Laerm;62630;55.874;37.516;2023-02-13T11:58:38;66.85;55.90;75.31;;
74260;Laerm;62630;55.874;37.516;2023-02-13T12:06:21;67.81;56.63;79.77;;
74260;Laerm;62630;55.874;37.516;2023-02-13T12:08:48;65.90;57.30;79.07;;
74260;Laerm;62630;55.874;37.516;2023-02-13T12:11:27;66.97;60.81;72.70;;
74260;Laerm;62630;55.874;37.516;2023-02-13T12:13:59;68.64;58.08;79.59;;
74260;Laerm;62630;55.874;37.516;2023-02-13T12:19:06;67.36;58.57;77.58;;
74260;Laerm;62630;55.874;37.516;2023-02-13T12:22:05;66.82;59.99;77.25;;
74260;Laerm;62630;55.874;37.516;2023-02-13T12:30:26;65.93;58.61;80.48;;
74260;Laerm;62630;55.874;37.516;2023-02-13T12:41:36;66.71;56.55;74.13;;
74260;Laerm;62630;55.874;37.516;2023-02-13T12:47:26;66.82;58.09;75.64;;
74260;Laerm;62630;55.874;37.516;2023-02-13T13:04:16;67.19;58.86;74.63;;
74260;Laerm;62630;55.874;37.516;2023-02-13T13:21:10;68.00;58.63;80.37;;
74260;Laerm;62630;55.874;37.516;2023-02-13T13:23:59;69.13;60.64;91.68;;
74260;Laerm;62630;55.874;37.516;2023-02-13T13:26:48;71.19;57.64;83.87;;
74260;Laerm;62630;55.874;37.516;2023-02-13T13:29:47;68.05;59.61;79.32;;
74260;Laerm;62630;55.874;37.516;2023-02-13T13:32:16;66.94;60.11;80.26;;
74260;Laerm;62630;55.874;37.516;2023-02-13T13:34:44;66.46;57.70;76.32;;
74260;Laerm;62630;55.874;37.516;2023-02-13T13:45:36;67.49;55.30;78.15;;
74260;Laerm;62630;55.874;37.516;2023-02-13T13:51:06;65.97;58.50;75.61;;
74260;Laerm;62630;55.874;37.516;2023-02-13T13:59:53;70.95;55.52;80.62;;
74260;Laerm;62630;55.874;37.516;2023-02-13T14:05:30;69.36;59.56;84.87;;
74260;Laerm;62630;55.874;37.516;2023-02-13T14:08:03;66.22;57.66;80.28;;
74260;Laerm;62630;55.874;37.516;2023-02-13T14:13:38;63.93;56.59;70.59;;
74260;Laerm;62630;55.874;37.516;2023-02-13T14:16:42;65.08;55.62;78.76;;
74260;Laerm;62630;55.874;37.516;2023-02-13T14:24:54;65.68;59.42;74.22;;
74260;Laerm;62630;55.874;37.516;2023-02-13T14:27:25;65.15;58.07;80.07;;
74260;Laerm;62630;55.874;37.516;2023-02-13T14:29:53;65.34;59.10;76.13;;
74260;Laerm;62630;55.874;37.516;2023-02-13T14:32:37;67.31;60.69;79.32;;
74260;Laerm;62630;55.874;37.516;2023-02-13T14:35:17;71.63;57.70;90.91;;
74260;Laerm;62630;55.874;37.516;2023-02-13T14:37:53;66.79;59.25;81.31;;
74260;Laerm;62630;55.874;37.516;2023-02-13T14:40:43;66.35;57.86;77.48;;
74260;Laerm;62630;55.874;37.516;2023-02-13T14:46:23;65.20;58.77;73.70;;
74260;Laerm;62630;55.874;37.516;2023-02-13T14:51:55;65.06;59.29;76.72;;
74260;Laerm;62630;55.874;37.516;2023-02-13T14:55:06;63.86;56.08;76.31;;
74260;Laerm;62630;55.874;37.516;2023-02-13T14:57:53;66.25;58.96;75.98;;
74260;Laerm;62630;55.874;37.516;2023-02-13T15:00:27;64.25;58.46;73.61;;
74260;Laerm;62630;55.874;37.516;2023-02-13T15:02:58;64.64;58.25;73.86;;
74260;Laerm;62630;55.874;37.516;2023-02-13T15:05:31;65.48;57.03;82.72;;
74260;Laerm;62630;55.874;37.516;2023-02-13T15:08:28;65.91;59.60;71.41;;
74260;Laerm;62630;55.874;37.516;2023-02-13T15:11:00;68.67;61.77;85.26;;
74260;Laerm;62630;55.874;37.516;2023-02-13T15:13:34;66.18;59.27;74.95;;
74260;Laerm;62630;55.874;37.516;2023-02-13T15:16:09;65.36;58.71;72.26;;
74260;Laerm;62630;55.874;37.516;2023-02-13T15:18:46;81.92;61.31;99.87;;
74260;Laerm;62630;55.874;37.516;2023-02-13T15:21:20;64.98;57.89;75.49;;
74260;Laerm;62630;55.874;37.516;2023-02-13T15:23:59;66.38;58.66;81.01;;
74260;Laerm;62630;55.874;37.516;2023-02-13T15:26:26;66.88;59.40;77.71;;
74260;Laerm;62630;55.874;37.516;2023-02-13T15:29:12;67.13;59.43;81.34;;
74260;Laerm;62630;55.874;37.516;2023-02-13T15:31:40;77.16;60.14;96.66;;
74260;Laerm;62630;55.874;37.516;2023-02-13T15:34:20;67.13;57.70;76.97;;
74260;Laerm;62630;55.874;37.516;2023-02-13T15:36:46;67.90;60.19;76.32;;
74260;Laerm;62630;55.874;37.516;2023-02-13T15:39:22;67.46;60.29;76.52;;
74260;Laerm;62630;55.874;37.516;2023-02-13T15:41:50;66.56;58.49;88.43;;
74260;Laerm;62630;55.874;37.516;2023-02-13T15:44:19;67.21;59.06;85.11;;
74260;Laerm;62630;55.874;37.516;2023-02-13T15:46:47;69.48;59.79;85.19;;
74260;Laerm;62630;55.874;37.516;2023-02-13T15:49:23;65.04;58.06;80.62;;
74260;Laerm;62630;55.874;37.516;2023-02-13T15:51:50;68.85;57.43;86.97;;
74260;Laerm;62630;55.874;37.516;2023-02-13T15:54:30;71.55;58.47;91.15;;
74260;Laerm;62630;55.874;37.516;2023-02-13T15:56:59;66.76;58.66;84.72;;
74260;Laerm;62630;55.874;37.516;2023-02-13T15:59:31;65.62;57.07;83.11;;
74260;Laerm;62630;55.874;37.516;2023-02-13T16:01:59;67.60;60.49;85.64;;
74260;Laerm;62630;55.874;37.516;2023-02-13T16:04:25;65.99;60.19;75.04;;
74260;Laerm;62630;55.874;37.516;2023-02-13T16:06:54;64.90;59.22;80.10;;
74260;Laerm;62630;55.874;37.516;2023-02-13T16:12:01;66.79;59.47;77.28;;
74260;Laerm;62630;55.874;37.516;2023-02-13T16:14:28;65.20;60.71;74.91;;
74260;Laerm;62630;55.874;37.516;2023-02-13T16:17:06;63.69;56.19;72.05;;
74260;Laerm;62630;55.874;37.516;2023-02-13T16:20:24;67.09;57.98;75.18;;
74260;Laerm;62630;55.874;37.516;2023-02-13T16:22:51;67.10;57.04;93.14;;
74260;Laerm;62630;55.874;37.516;2023-02-13T16:25:27;73.69;56.57;93.76;;
74260;Laerm;62630;55.874;37.516;2023-02-13T16:32:48;69.75;58.20;85.26;;
74260;Laerm;62630;55.874;37.516;2023-02-13T16:35:27;65.31;59.07;71.55;;
74260;Laerm;62630;55.874;37.516;2023-02-13T16:37:58;65.08;59.39;78.17;;
74260;Laerm;62630;55.874;37.516;2023-02-13T16:40:33;66.29;59.94;83.14;;
74260;Laerm;62630;55.874;37.516;2023-02-13T16:43:34;64.72;58.98;72.23;;
74260;Laerm;62630;55.874;37.516;2023-02-13T16:51:43;65.51;59.41;86.33;;
74260;Laerm;62630;55.874;37.516;2023-02-13T16:57:00;62.30;56.21;75.42;;
74260;Laerm;62630;55.874;37.516;2023-02-13T17:02:17;65.63;56.94;86.30;;
74260;Laerm;62630;55.874;37.516;2023-02-13T17:04:52;64.66;58.74;80.97;;